Time;durP1;ratioP1;P1;durP2;ratioP2;P2;SDS_P1;SDS_P2;PMS_P1;PMS_P2;Temp;Humidity;BMP_temperature;BMP_pressure;BME280_temperature;BME280_humidity;BME280_pressure;Samples;Min_cycle;Max_cycle;Signal;HPM_P1;HPM_P2
2023/08/20 00:00:18;;;;;;;2.90;2.70;;;21.40;99.90;;;;;;4990829;28;20493;-86
2023/08/20 00:02:48;;;;;;;3.03;2.83;;;21.40;99.90;;;;;;5018457;28;20459;-87
2023/08/20 00:05:18;;;;;;;2.40;2.30;;;21.30;99.90;;;;;;5001647;28;20488;-86
2023/08/20 00:07:46;;;;;;;2.97;2.77;;;21.30;99.90;;;;;;4989553;28;20421;-87
2023/08/20 00:10:14;;;;;;;1.90;1.80;;;21.30;99.90;;;;;;5000519;28;20418;-87
2023/08/20 00:12:41;;;;;;;2.10;2.00;;;21.30;99.90;;;;;;4995439;28;20425;-87
2023/08/20 00:15:08;;;;;;;3.20;2.27;;;21.30;99.90;;;;;;5005739;28;20692;-86
2023/08/20 00:17:43;;;;;;;1.17;1.10;;;21.30;99.90;;;;;;4980613;28;20512;-86
2023/08/20 00:20:16;;;;;;;2.13;2.03;;;21.20;99.90;;;;;;4987586;28;20447;-86
2023/08/20 00:22:49;;;;;;;4.73;4.43;;;21.30;99.90;;;;;;4987890;28;20502;-86
2023/08/20 00:25:20;;;;;;;3.20;3.00;;;21.20;99.90;;;;;;4992135;28;20989;-86
2023/08/20 00:27:58;;;;;;;1.53;1.40;;;21.20;99.90;;;;;;4992075;28;20432;-86
2023/08/20 00:30:46;;;;;;;2.03;1.93;;;21.20;99.90;;;;;;4999083;28;20513;-87
2023/08/20 00:33:19;;;;;;;2.30;2.20;;;21.10;99.90;;;;;;4972211;28;20415;-86
2023/08/20 00:35:57;;;;;;;5.37;4.67;;;21.10;99.90;;;;;;4992247;28;20477;-88
2023/08/20 00:38:31;;;;;;;3.10;2.80;;;21.20;99.90;;;;;;5006040;28;20413;-87
2023/08/20 00:41:04;;;;;;;3.30;3.10;;;21.10;99.90;;;;;;4986753;28;20456;-87
2023/08/20 00:43:39;;;;;;;2.83;2.63;;;21.00;99.90;;;;;;5006707;28;20409;-87
2023/08/20 00:46:11;;;;;;;2.03;1.93;;;21.00;99.90;;;;;;4986628;28;20414;-87
2023/08/20 00:48:44;;;;;;;1.77;1.67;;;21.00;99.90;;;;;;4982202;28;20453;-87
2023/08/20 00:51:13;;;;;;;4.40;4.10;;;21.00;99.90;;;;;;4995874;28;20426;-86
2023/08/20 00:53:40;;;;;;;3.13;2.90;;;21.00;99.90;;;;;;4996213;28;20511;-88
2023/08/20 00:56:18;;;;;;;2.07;1.97;;;21.00;99.90;;;;;;4994638;28;21009;-88
2023/08/20 00:58:48;;;;;;;1.37;1.30;;;21.00;99.90;;;;;;5003450;28;20479;-87
2023/08/20 01:01:29;;;;;;;3.00;2.80;;;21.00;99.90;;;;;;4991148;28;20425;-88
2023/08/20 01:04:09;;;;;;;2.30;2.20;;;21.00;99.90;;;;;;4999126;28;20457;-87
2023/08/20 01:07:22;;;;;;;2.53;2.33;;;20.90;99.90;;;;;;5002577;28;20449;-87
2023/08/20 01:10:04;;;;;;;1.93;1.83;;;20.90;99.90;;;;;;4980097;28;20428;-87
2023/08/20 01:12:41;;;;;;;2.67;2.53;;;20.90;99.90;;;;;;4990461;28;20410;-86
2023/08/20 01:15:13;;;;;;;1.73;1.63;;;20.80;99.90;;;;;;4985619;28;20432;-86
2023/08/20 01:17:42;;;;;;;1.43;1.33;;;20.80;99.90;;;;;;4978857;28;20463;-88
2023/08/20 01:20:51;;;;;;;2.27;2.13;;;20.80;99.90;;;;;;4974611;28;20498;-88
2023/08/20 01:24:06;;;;;;;1.50;1.40;;;20.70;99.90;;;;;;4990558;28;20490;-88
2023/08/20 01:27:24;;;;;;;1.53;1.43;;;20.70;99.90;;;;;;4987198;28;20430;-87
2023/08/20 01:29:55;;;;;;;3.47;3.27;;;20.70;99.90;;;;;;5010528;28;20398;-88
2023/08/20 01:32:49;;;;;;;4.87;4.57;;;20.80;99.90;;;;;;4993386;28;20628;-87
2023/08/20 01:35:19;;;;;;;2.70;2.50;;;20.90;99.90;;;;;;4992286;28;20418;-86
2023/08/20 01:37:54;;;;;;;3.90;2.57;;;21.00;99.90;;;;;;4991617;28;20467;-89
2023/08/20 01:40:33;;;;;;;2.53;2.17;;;20.80;99.90;;;;;;4993402;28;20453;-88
2023/08/20 01:43:05;;;;;;;1.97;1.87;;;20.80;99.90;;;;;;4990204;28;20436;-87
2023/08/20 01:45:32;;;;;;;1.60;1.50;;;20.80;99.90;;;;;;4998772;28;20422;-88
2023/08/20 01:48:03;;;;;;;2.03;1.93;;;20.70;99.90;;;;;;4988894;28;20498;-87
2023/08/20 01:50:38;;;;;;;2.70;2.60;;;20.70;99.90;;;;;;4986503;28;20776;-86
2023/08/20 01:53:10;;;;;;;1.90;1.80;;;20.70;99.90;;;;;;4998083;28;20503;-87
2023/08/20 01:55:42;;;;;;;4.37;3.20;;;20.60;99.90;;;;;;4987482;28;20468;-88
2023/08/20 01:58:12;;;;;;;1.73;1.63;;;20.70;99.90;;;;;;5000374;28;20488;-86
2023/08/20 02:00:46;;;;;;;3.63;2.70;;;20.60;99.90;;;;;;5005133;28;20414;-88
2023/08/20 02:03:16;;;;;;;4.77;3.67;;;20.50;99.90;;;;;;5006958;28;20459;-87
2023/08/20 02:05:46;;;;;;;2.57;2.37;;;20.50;99.90;;;;;;5000200;28;20437;-87
2023/08/20 02:08:16;;;;;;;2.53;2.30;;;20.40;99.90;;;;;;5008581;28;20426;-88
2023/08/20 02:10:47;;;;;;;2.40;2.30;;;20.40;99.90;;;;;;5000226;28;20530;-88
2023/08/20 02:13:14;;;;;;;4.80;3.77;;;20.40;99.90;;;;;;5023730;28;20452;-88
2023/08/20 02:15:45;;;;;;;2.30;2.20;;;20.30;99.90;;;;;;5021663;28;20406;-86
2023/08/20 02:18:15;;;;;;;2.97;2.80;;;20.20;99.90;;;;;;4997630;28;20457;-88
2023/08/20 02:20:57;;;;;;;1.53;1.47;;;20.10;99.90;;;;;;5009653;28;20420;-89
2023/08/20 02:23:28;;;;;;;2.13;2.03;;;20.20;99.90;;;;;;4998920;28;20410;-89
2023/08/20 02:26:10;;;;;;;3.60;3.40;;;20.10;99.90;;;;;;4996682;28;20478;-87
2023/08/20 02:28:38;;;;;;;3.27;3.07;;;20.10;99.90;;;;;;4997723;28;20450;-88
2023/08/20 02:31:31;;;;;;;1.97;1.87;;;20.10;99.90;;;;;;4986261;28;21005;-88
2023/08/20 02:34:19;;;;;;;;;;;;;;;;;;;;;
2023/08/20 02:37:02;;;;;;;2.33;2.20;;;20.00;99.90;;;;;;4998106;28;20483;-88
2023/08/20 02:39:41;;;;;;;;;;;;;;;;;;;;;
2023/08/20 02:42:29;;;;;;;3.20;3.00;;;20.00;99.90;;;;;;4999727;28;20717;-88
2023/08/20 02:45:17;;;;;;;3.70;3.50;;;20.00;99.90;;;;;;4975969;28;20507;-88
2023/08/20 02:47:59;;;;;;;2.77;2.67;;;19.90;99.90;;;;;;5002369;28;20436;-88
2023/08/20 02:50:32;;;;;;;2.00;1.90;;;20.10;99.90;;;;;;4992888;28;20406;-89
2023/08/20 02:53:15;;;;;;;2.73;2.63;;;19.90;99.90;;;;;;4996445;28;20438;-88
2023/08/20 02:55:46;;;;;;;3.43;3.23;;;19.90;99.90;;;;;;4986750;28;20418;-88
2023/08/20 02:58:20;;;;;;;4.17;3.90;;;19.80;99.90;;;;;;5007060;28;20801;-89
2023/08/20 03:00:58;;;;;;;1.80;1.70;;;19.80;99.90;;;;;;4992900;28;20467;-88
2023/08/20 03:03:45;;;;;;;;;;;;;;;;;;;;;
2023/08/20 03:06:34;;;;;;;1.70;1.60;;;19.60;99.90;;;;;;5001677;28;20451;-89
2023/08/20 03:09:14;;;;;;;1.67;1.57;;;19.70;99.90;;;;;;4996757;28;20496;-88
2023/08/20 03:11:47;;;;;;;2.30;2.20;;;19.60;99.90;;;;;;4988939;28;20438;-89
2023/08/20 03:14:33;;;;;;;1.80;1.47;;;19.50;99.90;;;;;;5010489;28;20469;-89
2023/08/20 03:17:22;;;;;;;2.03;1.93;;;19.60;99.90;;;;;;4997621;28;20464;-88
2023/08/20 03:20:16;;;;;;;3.40;3.10;;;19.60;99.90;;;;;;5000979;28;20513;-88
2023/08/20 03:22:54;;;;;;;2.17;2.07;;;19.50;99.90;;;;;;5004853;28;20230;-87
2023/08/20 03:25:27;;;;;;;1.57;1.47;;;19.50;99.90;;;;;;5006257;28;20516;-89
2023/08/20 03:28:03;;;;;;;1.37;1.27;;;19.40;99.90;;;;;;5002242;28;20514;-88
2023/08/20 03:31:23;;;;;;;1.97;1.87;;;19.50;99.90;;;;;;5001601;28;20437;-88
2023/08/20 03:33:52;;;;;;;2.77;2.60;;;19.50;99.90;;;;;;5016312;28;20447;-87
2023/08/20 03:36:38;;;;;;;1.73;1.63;;;19.50;99.90;;;;;;5014221;28;20448;-89
2023/08/20 03:39:13;;;;;;;4.63;2.20;;;19.50;99.90;;;;;;4989663;28;20958;-88
2023/08/20 03:41:43;;;;;;;1.60;1.50;;;19.50;99.90;;;;;;4989425;28;20515;-88
2023/08/20 03:44:14;;;;;;;2.90;2.70;;;19.50;99.90;;;;;;4986461;28;20480;-87
2023/08/20 03:46:51;;;;;;;8.10;7.68;;;19.50;99.90;;;;;;5003290;28;20306;-87
2023/08/20 04:04:55;;;;;;;19.80;18.10;;;19.40;99.90;;;;;;5099437;28;20568;-88
2023/08/20 04:21:51;;;;;;;1.97;1.80;;;19.60;99.90;;;;;;5130481;27;20496;-87
2023/08/20 04:24:18;;;;;;;3.50;3.30;;;20.10;99.90;;;;;;5126935;28;20508;-87
2023/08/20 04:26:57;;;;;;;1.43;1.33;;;19.90;99.90;;;;;;5107430;28;20429;-87
2023/08/20 04:29:24;;;;;;;1.03;1.00;;;20.00;99.90;;;;;;5109003;28;20425;-86
2023/08/20 04:31:54;;;;;;;2.50;2.30;;;20.10;99.90;;;;;;5128458;28;20409;-86
2023/08/20 04:34:23;;;;;;;3.43;3.20;;;20.00;99.90;;;;;;5131791;28;20492;-87
2023/08/20 04:36:51;;;;;;;1.83;1.73;;;20.10;99.90;;;;;;5114961;28;20439;-87
2023/08/20 04:39:19;;;;;;;1.40;1.30;;;20.60;99.90;;;;;;5109837;28;20444;-86
2023/08/20 04:41:48;;;;;;;6.03;3.63;;;20.60;99.90;;;;;;5085705;28;20481;-87
2023/08/20 04:44:15;;;;;;;2.20;2.07;;;20.60;99.90;;;;;;5099694;28;20406;-87
2023/08/20 04:46:43;;;;;;;3.47;3.27;;;20.70;99.90;;;;;;5120449;28;20479;-88
2023/08/20 04:49:11;;;;;;;2.07;1.97;;;21.00;99.90;;;;;;5116279;28;20418;-87
2023/08/20 04:51:39;;;;;;;1.67;1.57;;;20.90;99.90;;;;;;5114000;28;20984;-89
2023/08/20 04:54:08;;;;;;;3.73;3.53;;;20.70;99.90;;;;;;5112748;28;20412;-87
2023/08/20 04:56:39;;;;;;;1.90;1.83;;;20.90;99.90;;;;;;5123376;28;20450;-87
2023/08/20 04:59:09;;;;;;;3.80;3.53;;;20.70;99.90;;;;;;5106994;28;20447;-88
2023/08/20 05:01:40;;;;;;;0.60;0.60;;;21.20;99.90;;;;;;5098981;28;20448;-88
2023/08/20 05:04:08;;;;;;;4.20;3.90;;;21.40;99.90;;;;;;5107744;28;20408;-88
2023/08/20 05:06:41;;;;;;;4.60;4.20;;;21.60;99.90;;;;;;5127446;28;20717;-87
2023/08/20 05:09:08;;;;;;;3.07;2.80;;;21.80;99.90;;;;;;5086530;28;20416;-88
2023/08/20 05:11:36;;;;;;;5.20;4.70;;;22.00;99.90;;;;;;5121251;28;20409;-87
2023/08/20 05:14:03;;;;;;;3.33;3.13;;;22.20;99.90;;;;;;5112930;28;20746;-87
2023/08/20 05:16:33;;;;;;;2.23;2.10;;;22.30;99.90;;;;;;5129484;28;20416;-87
2023/08/20 05:19:02;;;;;;;1.60;1.50;;;22.40;99.90;;;;;;5138091;28;20446;-86
2023/08/20 05:21:30;;;;;;;2.40;2.30;;;22.40;99.90;;;;;;5111589;28;20641;-86
2023/08/20 05:23:57;;;;;;;1.70;1.60;;;22.50;99.90;;;;;;5102959;28;20475;-86
2023/08/20 05:26:26;;;;;;;1.43;1.33;;;22.60;99.90;;;;;;5121389;28;20465;-86
2023/08/20 05:28:53;;;;;;;2.80;2.60;;;22.80;99.90;;;;;;5118483;28;20494;-86
2023/08/20 05:31:20;;;;;;;2.37;2.27;;;23.10;99.90;;;;;;5075965;28;20477;-86
2023/08/20 05:33:52;;;;;;;2.03;1.93;;;23.30;99.90;;;;;;5100401;28;20462;-87
2023/08/20 05:36:19;;;;;;;1.70;1.60;;;23.30;99.90;;;;;;5114214;28;20602;-89
2023/08/20 05:38:49;;;;;;;3.17;2.97;;;23.20;99.90;;;;;;5110083;28;20429;-88
2023/08/20 05:41:16;;;;;;;5.47;4.97;;;23.50;99.90;;;;;;5108962;28;20460;-86
2023/08/20 05:43:43;;;;;;;2.70;2.50;;;23.80;99.90;;;;;;5091255;28;20470;-88
2023/08/20 05:46:11;;;;;;;1.70;1.63;;;23.80;99.90;;;;;;5105529;28;20459;-86
2023/08/20 05:48:38;;;;;;;2.73;2.57;;;24.00;99.90;;;;;;5086577;28;20428;-87
2023/08/20 05:51:05;;;;;;;7.00;3.57;;;24.20;99.90;;;;;;5101566;28;20525;-85
2023/08/20 05:53:33;;;;;;;2.00;1.90;;;24.20;99.90;;;;;;5101556;28;20438;-88
2023/08/20 05:56:02;;;;;;;3.23;2.97;;;24.20;99.90;;;;;;5099957;28;20456;-90
2023/08/20 05:58:34;;;;;;;2.53;2.43;;;24.50;99.90;;;;;;5109781;28;20692;-86
2023/08/20 06:01:03;;;;;;;1.57;1.47;;;24.60;99.90;;;;;;5092416;28;20541;-86
2023/08/20 06:03:30;;;;;;;2.43;2.23;;;24.70;99.90;;;;;;5095818;28;20406;-87
2023/08/20 06:06:00;;;;;;;4.13;3.07;;;24.80;99.90;;;;;;5100845;28;20436;-87
2023/08/20 06:08:32;;;;;;;2.60;2.40;;;25.20;99.90;;;;;;5107595;28;20720;-85
2023/08/20 06:11:00;;;;;;;2.97;2.83;;;25.40;99.90;;;;;;5108874;28;20420;-85
2023/08/20 06:13:27;;;;;;;2.80;2.60;;;25.50;99.90;;;;;;5098004;28;20444;-86
2023/08/20 06:15:54;;;;;;;1.47;1.40;;;25.60;99.90;;;;;;5102261;28;20415;-84
2023/08/20 06:18:22;;;;;;;1.93;1.83;;;26.00;99.90;;;;;;5111172;28;20451;-87
2023/08/20 06:20:49;;;;;;;1.50;1.40;;;26.00;99.90;;;;;;5086051;28;20451;-85
2023/08/20 06:23:16;;;;;;;0.93;0.93;;;26.00;99.90;;;;;;5113763;28;20408;-85
2023/08/20 06:26:03;;;;;;;1.13;1.07;;;26.10;99.90;;;;;;5105418;28;20413;-84
2023/08/20 06:28:30;;;;;;;2.10;1.97;;;26.60;99.90;;;;;;5106377;28;20467;-85
2023/08/20 06:30:58;;;;;;;1.27;1.27;;;26.50;99.90;;;;;;5101620;28;20397;-85
2023/08/20 06:33:25;;;;;;;1.93;1.83;;;26.50;99.90;;;;;;5095054;28;20498;-86
2023/08/20 06:35:52;;;;;;;1.30;1.30;;;26.90;99.90;;;;;;5090349;28;20485;-86
2023/08/20 06:38:19;;;;;;;1.50;1.40;;;27.30;99.90;;;;;;5104716;28;20479;-85
2023/08/20 06:40:46;;;;;;;0.93;0.93;;;28.00;99.90;;;;;;5110697;28;20465;-85
2023/08/20 06:43:14;;;;;;;2.13;2.03;;;28.30;99.90;;;;;;5118321;28;20509;-84
2023/08/20 06:45:42;;;;;;;1.53;1.43;;;28.30;99.90;;;;;;5097064;28;20459;-85
2023/08/20 06:48:10;;;;;;;2.70;2.60;;;28.60;99.90;;;;;;5093858;28;20447;-85
2023/08/20 06:50:39;;;;;;;2.40;2.30;;;28.60;99.90;;;;;;5088175;28;20415;-85
2023/08/20 06:53:06;;;;;;;3.13;2.93;;;28.70;99.90;;;;;;5112014;28;20831;-85
2023/08/20 06:55:36;;;;;;;3.67;3.47;;;29.10;99.90;;;;;;5104867;28;20410;-86
2023/08/20 06:58:03;;;;;;;2.23;2.13;;;29.10;97.30;;;;;;5095084;28;20422;-86
2023/08/20 07:00:30;;;;;;;2.97;2.73;;;29.50;96.70;;;;;;5103526;28;20446;-86
2023/08/20 07:02:56;;;;;;;4.70;3.63;;;30.00;95.40;;;;;;5102967;28;20844;-85
2023/08/20 07:05:24;;;;;;;1.23;1.23;;;30.60;94.40;;;;;;5096185;28;20435;-84
2023/08/20 07:07:51;;;;;;;1.70;1.60;;;31.10;93.10;;;;;;5097059;28;20463;-84
2023/08/20 07:10:18;;;;;;;2.23;2.13;;;31.50;90.40;;;;;;5100502;28;20459;-86
2023/08/20 07:12:45;;;;;;;1.47;1.43;;;31.90;86.00;;;;;;5093716;28;20429;-86
2023/08/20 07:15:11;;;;;;;2.47;2.37;;;32.00;84.10;;;;;;5088687;28;20525;-85
2023/08/20 07:17:39;;;;;;;1.40;1.30;;;32.10;82.80;;;;;;5090281;28;20470;-84
2023/08/20 07:20:07;;;;;;;1.00;1.00;;;32.40;81.90;;;;;;5101268;28;20475;-87
2023/08/20 07:22:33;;;;;;;1.90;1.80;;;32.70;79.50;;;;;;5090659;28;20483;-86
2023/08/20 07:25:01;;;;;;;2.03;1.93;;;33.30;75.50;;;;;;5088877;28;20518;-85
2023/08/20 07:27:27;;;;;;;2.20;2.10;;;33.80;73.20;;;;;;5088987;28;20467;-85
2023/08/20 07:29:55;;;;;;;2.90;2.73;;;34.30;68.90;;;;;;5096343;28;20501;-84
2023/08/20 07:32:21;;;;;;;1.40;1.37;;;33.80;68.80;;;;;;5099396;28;20524;-84
2023/08/20 07:34:49;;;;;;;1.30;1.20;;;33.40;69.70;;;;;;5109091;28;20430;-86
2023/08/20 07:37:16;;;;;;;3.07;2.87;;;33.10;72.10;;;;;;5114758;28;20512;-85
2023/08/20 07:39:43;;;;;;;1.87;1.77;;;33.60;70.20;;;;;;5105004;28;20522;-85
2023/08/20 07:42:10;;;;;;;2.33;2.13;;;34.50;65.50;;;;;;5097943;28;20436;-85
2023/08/20 07:44:38;;;;;;;2.17;2.07;;;35.10;64.20;;;;;;5078791;28;20672;-88
2023/08/20 07:47:05;;;;;;;2.13;2.00;;;35.30;62.40;;;;;;5101167;28;20457;-86
2023/08/20 07:49:31;;;;;;;1.80;1.70;;;36.40;60.10;;;;;;5095851;28;20461;-86
2023/08/20 07:51:58;;;;;;;2.93;2.83;;;36.00;57.60;;;;;;5096478;28;20517;-86
2023/08/20 07:54:27;;;;;;;1.10;1.10;;;35.50;59.70;;;;;;5091670;28;20450;-83
2023/08/20 07:56:53;;;;;;;2.83;2.70;;;35.70;59.90;;;;;;5101839;28;20722;-85
2023/08/20 07:59:21;;;;;;;1.73;1.63;;;35.70;59.40;;;;;;5102120;28;20503;-86
2023/08/20 08:01:48;;;;;;;1.63;1.60;;;36.20;58.10;;;;;;5091131;28;20496;-87
2023/08/20 08:04:15;;;;;;;2.00;1.90;;;36.90;57.00;;;;;;5109775;28;20457;-85
2023/08/20 08:06:43;;;;;;;1.43;1.43;;;37.00;54.70;;;;;;5099027;28;20434;-86
2023/08/20 08:09:27;;;;;;;1.37;1.37;;;37.60;53.50;;;;;;5096791;28;20442;-86
2023/08/20 08:11:56;;;;;;;2.07;1.97;;;37.00;55.00;;;;;;5095983;28;20504;-83
2023/08/20 08:14:23;;;;;;;1.57;1.50;;;36.60;54.20;;;;;;5094033;28;20428;-83
2023/08/20 08:16:51;;;;;;;1.90;1.80;;;37.00;54.10;;;;;;5096695;28;20430;-83
2023/08/20 08:19:18;;;;;;;2.10;2.00;;;36.90;54.10;;;;;;5088185;28;20433;-87
2023/08/20 08:21:45;;;;;;;2.67;2.47;;;37.80;53.40;;;;;;5106469;28;20517;-83
2023/08/20 08:24:13;;;;;;;2.73;2.63;;;37.50;52.80;;;;;;5104247;28;20497;-84
2023/08/20 08:26:41;;;;;;;2.40;2.30;;;37.90;53.00;;;;;;5106659;28;20502;-86
2023/08/20 08:29:09;;;;;;;1.97;1.87;;;37.80;53.40;;;;;;5090608;28;20450;-88
2023/08/20 08:31:36;;;;;;;2.60;2.50;;;38.20;51.00;;;;;;5095062;28;20448;-86
2023/08/20 08:34:03;;;;;;;2.83;2.63;;;38.70;47.80;;;;;;5092517;28;20434;-88
2023/08/20 08:36:31;;;;;;;1.93;1.83;;;38.50;49.60;;;;;;5096428;28;20441;-90
2023/08/20 08:38:57;;;;;;;2.00;1.90;;;38.80;47.40;;;;;;5099513;28;20441;-85
2023/08/20 08:41:26;;;;;;;2.30;2.20;;;38.90;47.60;;;;;;5106153;28;20550;-86
2023/08/20 08:43:55;;;;;;;2.07;1.97;;;39.10;48.10;;;;;;5084358;28;21733;-84
2023/08/20 08:46:24;;;;;;;1.70;1.60;;;39.10;46.80;;;;;;5098849;28;20653;-86
2023/08/20 08:48:52;;;;;;;1.87;1.80;;;38.40;46.40;;;;;;5098964;28;20442;-90
2023/08/20 08:51:19;;;;;;;2.37;2.27;;;37.50;47.80;;;;;;5097194;28;20767;-86
2023/08/20 08:53:48;;;;;;;1.97;1.87;;;36.70;50.50;;;;;;5107379;28;20749;-88
2023/08/20 08:56:17;;;;;;;2.37;2.20;;;36.10;52.40;;;;;;5079652;28;20475;-87
2023/08/20 08:58:44;;;;;;;1.90;1.80;;;35.60;53.60;;;;;;5101777;28;20431;-87
2023/08/20 09:01:11;;;;;;;1.43;1.33;;;35.00;54.20;;;;;;5103370;28;20538;-87
2023/08/20 09:03:38;;;;;;;1.80;1.70;;;34.50;55.80;;;;;;5111894;28;20672;-87
2023/08/20 09:06:09;;;;;;;1.40;1.30;;;33.90;57.80;;;;;;5093066;28;20436;-86
2023/08/20 09:08:36;;;;;;;1.63;1.53;;;33.60;57.70;;;;;;5114512;28;20763;-87
2023/08/20 09:11:04;;;;;;;1.00;1.00;;;33.10;57.90;;;;;;5105842;28;20443;-87
2023/08/20 09:13:37;;;;;;;1.50;1.40;;;32.80;59.30;;;;;;5096004;28;20506;-86
2023/08/20 09:16:09;;;;;;;1.27;1.27;;;32.60;60.40;;;;;;5108242;28;20806;-86
2023/08/20 09:18:44;;;;;;;2.07;1.97;;;32.40;61.30;;;;;;5097385;28;20453;-86
2023/08/20 09:21:15;;;;;;;2.43;2.23;;;32.10;64.30;;;;;;5110054;28;20850;-86
2023/08/20 09:23:47;;;;;;;4.70;2.13;;;32.10;64.50;;;;;;5101801;28;20471;-87
2023/08/20 09:26:16;;;;;;;2.67;2.50;;;32.00;65.60;;;;;;5102643;28;20414;-88
2023/08/20 09:28:46;;;;;;;1.90;1.80;;;31.90;65.10;;;;;;5121009;28;20439;-87
2023/08/20 09:31:15;;;;;;;1.80;1.70;;;31.80;66.10;;;;;;5093747;28;20428;-88
2023/08/20 09:33:53;;;;;;;2.30;2.20;;;31.70;67.40;;;;;;5103515;28;20463;-86
2023/08/20 09:36:43;;;;;;;1.50;1.40;;;31.80;66.50;;;;;;5099463;28;20452;-87
2023/08/20 09:39:10;;;;;;;1.90;1.80;;;31.70;67.40;;;;;;5098956;28;20499;-88
2023/08/20 09:41:38;;;;;;;1.23;1.20;;;31.50;66.90;;;;;;5109964;28;20490;-87
2023/08/20 09:44:07;;;;;;;2.20;2.10;;;31.30;67.50;;;;;;5101756;28;20435;-87
2023/08/20 09:46:36;;;;;;;2.83;2.67;;;31.50;67.50;;;;;;5110043;28;20414;-87
2023/08/20 09:49:06;;;;;;;1.60;1.50;;;31.40;66.70;;;;;;5072600;28;20442;-86
2023/08/20 09:51:36;;;;;;;1.57;1.50;;;31.40;66.80;;;;;;5074635;28;20427;-87
2023/08/20 09:54:32;;;;;;;1.77;1.67;;;31.40;66.70;;;;;;5113765;28;20463;-87
2023/08/20 09:57:03;;;;;;;1.60;1.50;;;31.60;66.70;;;;;;5095925;28;20499;-84
2023/08/20 09:59:31;;;;;;;1.93;1.83;;;31.70;66.10;;;;;;5093110;28;20443;-84
2023/08/20 10:01:59;;;;;;;2.40;2.30;;;32.00;65.60;;;;;;5101399;28;20910;-86
2023/08/20 10:04:26;;;;;;;1.60;1.50;;;32.00;65.80;;;;;;5110991;28;20470;-88
2023/08/20 10:06:54;;;;;;;2.67;2.47;;;32.20;65.40;;;;;;5103433;28;20615;-87
2023/08/20 10:09:22;;;;;;;2.77;2.60;;;32.20;65.50;;;;;;5114168;28;20463;-87
2023/08/20 10:11:49;;;;;;;1.60;1.50;;;32.00;65.50;;;;;;5113904;28;20458;-87
2023/08/20 10:14:17;;;;;;;1.90;1.80;;;32.10;66.40;;;;;;5069568;28;20435;-89
2023/08/20 10:16:45;;;;;;;1.13;1.13;;;31.90;66.60;;;;;;5113467;28;20481;-86
2023/08/20 10:19:16;;;;;;;2.83;2.63;;;31.80;66.00;;;;;;5103245;28;20434;-87
2023/08/20 10:21:46;;;;;;;1.80;1.70;;;31.70;66.80;;;;;;5103813;28;20518;-87
2023/08/20 10:24:19;;;;;;;1.77;1.67;;;31.70;65.70;;;;;;5105689;28;20798;-86
2023/08/20 10:26:48;;;;;;;2.20;2.07;;;31.90;66.50;;;;;;5112291;28;20463;-89
2023/08/20 10:29:34;;;;;;;2.10;2.00;;;31.90;64.40;;;;;;5098490;28;20435;-87
2023/08/20 10:32:04;;;;;;;2.03;1.93;;;31.90;65.70;;;;;;5082787;28;20456;-88
2023/08/20 10:34:35;;;;;;;2.03;1.93;;;32.00;64.00;;;;;;5111031;28;20455;-85
2023/08/20 10:37:10;;;;;;;1.50;1.40;;;31.80;65.10;;;;;;5109142;28;20423;-86
2023/08/20 10:39:38;;;;;;;1.60;1.50;;;31.90;64.40;;;;;;5100309;28;20451;-88
2023/08/20 10:42:10;;;;;;;1.97;1.87;;;31.90;65.10;;;;;;5113851;28;20506;-87
2023/08/20 10:44:56;;;;;;;8.10;3.63;;;31.80;65.70;;;;;;5112387;28;20474;-86
2023/08/20 10:47:25;;;;;;;2.23;2.13;;;31.70;66.60;;;;;;5111862;28;20838;-86
2023/08/20 10:49:54;;;;;;;1.43;1.33;;;31.60;67.20;;;;;;5093319;28;20448;-88
2023/08/20 10:52:23;;;;;;;1.97;1.87;;;31.60;68.00;;;;;;5097266;28;20457;-85
2023/08/20 10:54:51;;;;;;;1.93;1.83;;;31.70;66.80;;;;;;5109370;28;20890;-89
2023/08/20 10:57:22;;;;;;;1.40;1.30;;;31.80;66.50;;;;;;5100405;28;20463;-86
2023/08/20 11:00:00;;;;;;;1.47;1.40;;;32.00;66.20;;;;;;5086407;28;20443;-87
2023/08/20 11:02:28;;;;;;;2.30;2.10;;;32.20;65.00;;;;;;5096499;28;20472;-85
2023/08/20 11:04:55;;;;;;;1.63;1.53;;;32.40;64.20;;;;;;5108264;28;20668;-88
2023/08/20 11:07:26;;;;;;;1.83;1.73;;;32.40;64.10;;;;;;5105114;28;20442;-86
2023/08/20 11:09:54;;;;;;;1.10;1.10;;;32.50;63.50;;;;;;5104838;28;20459;-87
2023/08/20 11:12:22;;;;;;;1.83;1.73;;;32.40;63.10;;;;;;5103736;28;20566;-87
2023/08/20 11:14:49;;;;;;;2.60;2.17;;;32.40;63.90;;;;;;5111161;28;20490;-86
2023/08/20 11:17:16;;;;;;;1.50;1.40;;;32.40;62.60;;;;;;5105481;28;20701;-86
2023/08/20 11:19:43;;;;;;;1.40;1.30;;;32.40;61.70;;;;;;5113898;28;20742;-86
2023/08/20 11:22:18;;;;;;;2.90;1.97;;;32.30;63.60;;;;;;5111416;28;20739;-91
2023/08/20 11:24:46;;;;;;;2.03;1.93;;;32.30;62.60;;;;;;5100826;28;21006;-86
2023/08/20 11:27:13;;;;;;;1.07;1.07;;;32.30;62.40;;;;;;5113398;28;20754;-89
2023/08/20 11:29:43;;;;;;;1.33;1.27;;;32.40;62.80;;;;;;5096638;28;20449;-85
2023/08/20 11:32:10;;;;;;;0.90;0.90;;;32.50;62.20;;;;;;5107555;28;20507;-83
2023/08/20 11:34:38;;;;;;;1.40;1.33;;;32.40;59.80;;;;;;5101129;28;20707;-83
2023/08/20 11:37:07;;;;;;;1.47;1.30;;;32.40;60.30;;;;;;5108079;28;20434;-87
2023/08/20 11:39:36;;;;;;;1.73;1.63;;;32.50;60.70;;;;;;5115578;28;20441;-87
2023/08/20 11:42:03;;;;;;;1.20;1.13;;;32.50;59.30;;;;;;5092310;28;20558;-87
2023/08/20 11:44:44;;;;;;;1.23;1.23;;;32.60;60.50;;;;;;5100660;28;20439;-87
2023/08/20 11:47:16;;;;;;;2.00;1.90;;;32.80;58.00;;;;;;5101708;28;20487;-86
2023/08/20 11:49:44;;;;;;;1.03;1.03;;;32.70;58.90;;;;;;5100253;28;20487;-86
2023/08/20 11:52:14;;;;;;;1.63;1.53;;;32.70;59.20;;;;;;5093999;28;20499;-88
2023/08/20 11:54:42;;;;;;;1.80;1.70;;;32.70;59.80;;;;;;5083619;28;20979;-90
2023/08/20 11:57:10;;;;;;;1.90;1.80;;;32.30;58.70;;;;;;5101182;28;20511;-87
2023/08/20 11:59:38;;;;;;;1.50;1.40;;;32.30;59.00;;;;;;5091361;28;20502;-88
2023/08/20 12:02:06;;;;;;;2.23;2.13;;;32.30;60.50;;;;;;5118990;28;20502;-87
2023/08/20 12:04:35;;;;;;;1.90;1.80;;;32.40;60.50;;;;;;5097477;28;20500;-87
2023/08/20 12:07:17;;;;;;;1.90;1.80;;;32.40;60.70;;;;;;5106853;28;20439;-88
2023/08/20 12:09:45;;;;;;;1.50;1.40;;;32.50;59.80;;;;;;5116267;28;20453;-87
2023/08/20 12:12:22;;;;;;;2.40;2.23;;;32.20;58.80;;;;;;5089730;28;20523;-90
2023/08/20 12:14:53;;;;;;;1.63;1.53;;;32.40;59.10;;;;;;5099794;28;20550;-88
2023/08/20 12:17:22;;;;;;;1.03;1.03;;;32.40;59.10;;;;;;5096909;28;20435;-88
2023/08/20 12:19:49;;;;;;;1.23;1.10;;;32.40;59.10;;;;;;5087831;28;20431;-86
2023/08/20 12:22:17;;;;;;;1.70;1.60;;;32.40;60.50;;;;;;5100690;28;20521;-86
2023/08/20 12:24:43;;;;;;;2.03;1.83;;;32.40;59.30;;;;;;5100453;28;20506;-86
2023/08/20 12:27:11;;;;;;;1.87;1.77;;;32.60;60.30;;;;;;5101007;28;20759;-87
2023/08/20 12:29:37;;;;;;;1.50;1.40;;;32.40;59.30;;;;;;5105895;28;20499;-86
2023/08/20 12:32:07;;;;;;;1.27;1.27;;;32.50;59.40;;;;;;5105949;28;21078;-89
2023/08/20 12:34:34;;;;;;;2.20;2.10;;;32.50;58.50;;;;;;5107415;28;20442;-87
2023/08/20 12:37:02;;;;;;;1.90;1.80;;;32.60;59.20;;;;;;5103476;28;20484;-87
2023/08/20 12:39:29;;;;;;;1.17;1.17;;;32.60;59.60;;;;;;5114864;28;20505;-88
2023/08/20 12:41:56;;;;;;;2.43;2.33;;;32.60;60.80;;;;;;5103005;28;20534;-83
2023/08/20 12:44:23;;;;;;;1.10;1.10;;;32.70;60.50;;;;;;5121429;28;20426;-86
2023/08/20 12:46:51;;;;;;;1.20;1.20;;;32.50;59.60;;;;;;5103821;28;20442;-86
2023/08/20 12:49:17;;;;;;;1.40;1.33;;;32.80;60.60;;;;;;5106227;28;20509;-82
2023/08/20 12:51:44;;;;;;;1.60;1.50;;;32.80;59.40;;;;;;5100535;28;20545;-83
2023/08/20 12:54:11;;;;;;;1.57;1.50;;;33.00;60.20;;;;;;5081752;28;20764;-88
2023/08/20 12:56:38;;;;;;;1.77;1.67;;;33.00;59.70;;;;;;5114461;28;20434;-87
2023/08/20 12:59:05;;;;;;;3.03;2.83;;;33.00;57.80;;;;;;5105703;28;20511;-85
2023/08/20 13:01:32;;;;;;;1.47;1.37;;;33.00;57.10;;;;;;5097626;28;20861;-83
2023/08/20 13:03:59;;;;;;;1.77;1.67;;;33.00;58.10;;;;;;5104064;28;20438;-83
2023/08/20 13:06:27;;;;;;;1.30;1.20;;;32.80;57.10;;;;;;5098965;28;20479;-87
2023/08/20 13:08:54;;;;;;;1.83;1.73;;;32.80;56.70;;;;;;5105074;28;20473;-82
2023/08/20 13:11:25;;;;;;;2.87;2.67;;;32.70;56.60;;;;;;5095983;28;20467;-82
2023/08/20 13:13:52;;;;;;;1.00;1.00;;;32.70;57.10;;;;;;5245048;23;20546;-87
2023/08/20 13:16:19;;;;;;;1.67;1.57;;;32.60;59.00;;;;;;4989049;28;20448;-86
2023/08/20 13:18:47;;;;;;;1.30;1.20;;;32.40;59.10;;;;;;4991512;28;20456;-86
2023/08/20 13:21:14;;;;;;;1.83;1.73;;;32.20;60.40;;;;;;4987735;28;20554;-81
2023/08/20 13:23:41;;;;;;;2.10;2.00;;;32.00;61.30;;;;;;5001899;28;20514;-82
2023/08/20 13:26:08;;;;;;;1.27;1.20;;;31.90;61.50;;;;;;4988066;28;20700;-85
2023/08/20 13:28:36;;;;;;;1.53;1.43;;;32.00;59.90;;;;;;4994030;28;20835;-84
2023/08/20 13:31:03;;;;;;;2.00;1.90;;;32.20;60.00;;;;;;4986787;28;20444;-87
2023/08/20 13:33:30;;;;;;;0.87;0.87;;;32.20;60.90;;;;;;4990853;28;20454;-83
2023/08/20 13:35:57;;;;;;;2.13;2.00;;;32.20;61.30;;;;;;5001274;28;20515;-82
2023/08/20 13:38:25;;;;;;;2.27;2.17;;;32.30;62.20;;;;;;4995975;28;20432;-80
2023/08/20 13:40:52;;;;;;;1.60;1.50;;;32.40;60.20;;;;;;4996178;28;20456;-85